createdAt,value
2017-06-14T18:38:33.107Z,100746
2017-06-14T18:40:59.874Z,100753
2017-06-14T18:43:26.622Z,100759
2017-06-14T18:45:53.371Z,100755
2017-06-14T18:48:20.133Z,100750
2017-06-14T18:50:46.898Z,100753
2017-06-14T18:53:13.631Z,100748
2017-06-14T18:55:40.400Z,100745
2017-06-14T18:58:07.157Z,100746
2017-06-14T19:00:33.901Z,100747
2017-06-14T19:03:00.663Z,100755
2017-06-14T19:05:27.494Z,100756
2017-06-14T19:07:54.236Z,100755
2017-06-14T19:10:20.994Z,100755
2017-06-14T19:12:47.749Z,100755
2017-06-14T19:15:14.504Z,100752
2017-06-14T19:17:41.263Z,100752
2017-06-14T19:20:07.199Z,100744
2017-06-14T19:22:33.140Z,100744
2017-06-14T19:24:59.032Z,100745
2017-06-14T19:27:24.987Z,100746
2017-06-14T19:29:52.852Z,100745
2017-06-14T19:32:18.789Z,100751
2017-06-14T19:34:50.799Z,100761
2017-06-14T19:37:16.712Z,100749
2017-06-14T19:39:42.620Z,100766
2017-06-14T19:42:08.512Z,100758
2017-06-14T19:44:34.403Z,100765
2017-06-14T19:47:00.291Z,100761
2017-06-14T19:49:26.191Z,100762
2017-06-14T19:51:52.087Z,100771
2017-06-14T19:54:17.993Z,100763
2017-06-14T19:56:43.904Z,100768
2017-06-14T19:59:09.782Z,100766
2017-06-14T20:01:35.713Z,100768
2017-06-14T20:04:01.603Z,100768
2017-06-14T20:06:27.546Z,100773
2017-06-14T20:08:53.432Z,100775
2017-06-14T20:11:19.341Z,100773
2017-06-14T20:13:45.242Z,100773
2017-06-14T20:16:11.158Z,100773
2017-06-14T20:18:37.053Z,100780
2017-06-14T20:21:02.944Z,100788
2017-06-14T20:23:28.836Z,100778
2017-06-14T20:25:54.746Z,100773
2017-06-14T20:28:20.635Z,100776
2017-06-14T20:30:46.515Z,100777
2017-06-14T20:33:12.438Z,100770
2017-06-14T20:35:38.371Z,100774
2017-06-14T20:38:04.289Z,100770
2017-06-14T20:40:30.184Z,100778
2017-06-14T20:42:56.095Z,100776
2017-06-14T20:45:22.057Z,100776
2017-06-14T20:50:58.729Z,100807
2017-06-14T20:53:25.482Z,100814
2017-06-14T20:55:52.217Z,100806
2017-06-14T20:58:18.966Z,100809
2017-06-14T21:00:45.716Z,100816
2017-06-14T21:03:12.447Z,100815
2017-06-14T21:05:39.192Z,100809
2017-06-14T21:08:05.926Z,100805
2017-06-14T21:10:32.682Z,100801
2017-06-14T21:12:59.433Z,100804
2017-06-14T21:15:26.166Z,100806
2017-06-14T21:17:52.911Z,100806
2017-06-14T21:20:19.652Z,100803
2017-06-14T21:22:46.380Z,100811
2017-06-14T21:25:13.226Z,100812
2017-06-14T21:27:39.962Z,100810
2017-06-14T21:30:06.709Z,100806
2017-06-14T21:32:33.441Z,100811
2017-06-14T21:35:00.194Z,100802
2017-06-14T21:37:27.180Z,100811
2017-06-14T21:39:53.934Z,100805
2017-06-14T21:42:20.691Z,100811
2017-06-14T21:44:48.021Z,100804
2017-06-14T21:47:14.797Z,100805
2017-06-14T21:49:41.636Z,100808
2017-06-14T21:52:08.390Z,100810
2017-06-14T21:54:35.131Z,100807
2017-06-14T21:57:01.871Z,100808
2017-06-14T21:59:29.384Z,100812
2017-06-14T22:01:56.360Z,100807
2017-06-14T22:04:23.112Z,100811
2017-06-14T22:06:49.863Z,100816
2017-06-14T22:09:17.078Z,100814
2017-06-14T22:11:43.903Z,100811
2017-06-14T22:14:11.191Z,100808
2017-06-14T22:16:37.924Z,100808
2017-06-14T22:19:04.740Z,100807
2017-06-14T22:21:31.536Z,100809
2017-06-14T22:23:59.041Z,100807
2017-06-14T22:26:25.822Z,100816
2017-06-14T22:28:52.551Z,100816
2017-06-14T22:31:19.770Z,100807
2017-06-14T22:33:46.922Z,100815
2017-06-14T22:36:13.899Z,100804
2017-06-14T22:38:41.018Z,100808
2017-06-14T22:41:08.167Z,100811
2017-06-14T22:43:35.012Z,100806
2017-06-14T22:46:02.009Z,100805
2017-06-14T22:48:29.311Z,100808
2017-06-14T22:50:56.075Z,100809
2017-06-14T22:53:23.525Z,100799
2017-06-14T22:55:50.458Z,100802
2017-06-14T22:58:17.914Z,100797
2017-06-14T23:00:45.530Z,100799
2017-06-14T23:03:12.345Z,100795
2017-06-14T23:05:39.084Z,100799
2017-06-14T23:08:06.818Z,100794
2017-06-14T23:10:34.346Z,100787
2017-06-14T23:13:01.733Z,100787
2017-06-14T23:15:28.475Z,100790
2017-06-14T23:17:55.723Z,100793
2017-06-14T23:20:22.874Z,100783
2017-06-14T23:22:50.024Z,100788
2017-06-14T23:25:17.176Z,100783
2017-06-14T23:27:44.324Z,100784
2017-06-14T23:30:12.399Z,100780
2017-06-14T23:32:39.548Z,100778
2017-06-14T23:35:06.391Z,100769
2017-06-14T23:37:34.158Z,100771
2017-06-14T23:40:01.251Z,100780
2017-06-14T23:42:28.455Z,100767
2017-06-14T23:44:55.490Z,100766
2017-06-14T23:47:22.333Z,100762
2017-06-14T23:49:49.075Z,100764
2017-06-14T23:52:15.824Z,100765
2017-06-14T23:54:42.574Z,100764
2017-06-14T23:57:09.326Z,100764
2017-06-14T23:59:36.077Z,100756
